Edzard Schulte — 2CVX9 — position and weather

sailwx.info

Track history (hours):
 
Tides and Currents Weather Stations Pressure Air Temp Water Temp Dewpoint Dewpoint Depression Visibility Wind Speed Wind Dir Waves Ship Positions

Edzard Schulte

Last reported at 2016-Jul-22 04:03 UTC. Time now 2016-Jul-27 17:18 UTC.
Position N 46°13' W 072°47'.

Length 145 m; draft 6.1 m.

Type: Tanker. MMSI: 235076245.

Date/timePositionNaut miles runAvg speedWind from/ knotsBaromVisibWave heightAir tempDewpointWater temp
2016-Jul-22 04:03N 46°13' W 072°47'714.8
2016-Jul-22 03:33N 46°10' W 072°57'1212.2
2016-Jul-22 02:34N 46°02' W 073°10'1313.4
2016-Jul-22 01:33N 45°50' W 073°18'1413.6
2016-Jul-22 00:33N 45°38' W 073°29'5 4.2
2016-Jul-21 23:25N 45°34' W 073°31'0 0.0
2016-Jul-21 22:31N 45°34' W 073°31'0 0.0
2016-Jul-21 21:31N 45°34' W 073°31'0 0.0
2016-Jul-21 20:31N 45°34' W 073°31'0 0.0
2016-Jul-21 19:25N 45°34' W 073°31'0 0.0
2016-Jul-21 18:31N 45°34' W 073°31'0 0.0
2016-Jul-21 17:31N 45°34' W 073°31'0 0.0
2016-Jul-21 16:31N 45°34' W 073°31'0 0.0
2016-Jul-21 15:31N 45°34' W 073°31'0 0.0
2016-Jul-21 14:25N 45°34' W 073°31'0 0.0
2016-Jul-21 13:33N 45°34' W 073°31'7 2.9
2016-Jul-21 11:19N 45°27' W 073°30'4 4.6
2016-Jul-21 10:31N 45°24' W 073°34'2 2.1
2016-Jul-21 09:24N 45°24' W 073°37'5 5.5
2016-Jul-21 08:33N 45°24' W 073°44'9 9.5
2016-Jul-21 07:33N 45°19' W 073°55'1 0.7
2016-Jul-21 06:33N 45°18' W 073°56'1 0.6
2016-Jul-21 05:34N 45°18' W 073°56'118 8.2
2016-Jul-20 15:05N 44°12' W 076°15'510.4
2016-Jul-20 14:34N 44°08' W 076°20'13512.9
2016-Jul-20 04:07N 43°16' W 079°12'3 4.5
2016-Jul-20 03:31N 43°13' W 079°13'  
2016-Jul-14 10:33N 43°13' W 079°13'1 1.1
2016-Jul-14 09:34N 43°14' W 079°13'8 8.0
2016-Jul-14 08:30N 43°21' W 079°06'12512.5
2016-Jul-13 22:34N 44°05' W 076°25'126 7.4
2016-Jul-13 05:33N 45°15' W 073°58'4 3.7
2016-Jul-13 04:33N 45°18' W 073°56'1 0.8
2016-Jul-13 03:33N 45°19' W 073°55'6 5.5
2016-Jul-13 02:33N 45°23' W 073°49'8 7.5
2016-Jul-13 01:33N 45°24' W 073°38'10 2.5
2016-Jul-12 21:29N 45°33' W 073°31'1 0.7
2016-Jul-12 20:31N 45°34' W 073°31'0 0.0
2016-Jul-12 19:31N 45°34' W 073°31'0 0.0
2016-Jul-12 18:31N 45°34' W 073°31'0 0.0
2016-Jul-12 17:31N 45°34' W 073°31'0 0.0
2016-Jul-12 16:31N 45°34' W 073°31'2 2.3
2016-Jul-12 15:28N 45°36' W 073°30'8 8.4
2016-Jul-12 14:33N 45°43' W 073°26'10 9.6
2016-Jul-12 13:33N 45°50' W 073°17'9 9.1
2016-Jul-12 12:33N 45°59' W 073°11'9 9.4
2016-Jul-12 11:33N 46°05' W 073°01'1010.1
2016-Jul-12 10:32N 46°12' W 072°51'  
Track history (hours):
 
Tides and Currents Weather Stations Pressure Air Temp Water Temp Dewpoint Dewpoint Depression Visibility Wind Speed Wind Dir Waves Ship Positions

Edzard Schulte

Last reported at 2016-Jul-22 04:03 UTC. Time now 2016-Jul-27 17:18 UTC.
Position N 46°13' W 072°47'.

Length 145 m; draft 6.1 m.

Type: Tanker. MMSI: 235076245.

Date/timePositionNaut miles runAvg speedWind from/ knotsBaromVisibWave heightAir tempDewpointWater temp
2016-Jul-22 04:03N 46°13' W 072°47'714.8
2016-Jul-22 03:33N 46°10' W 072°57'1212.2
2016-Jul-22 02:34N 46°02' W 073°10'1313.4
2016-Jul-22 01:33N 45°50' W 073°18'1413.6
2016-Jul-22 00:33N 45°38' W 073°29'5 4.2
2016-Jul-21 23:25N 45°34' W 073°31'0 0.0
2016-Jul-21 22:31N 45°34' W 073°31'0 0.0
2016-Jul-21 21:31N 45°34' W 073°31'0 0.0
2016-Jul-21 20:31N 45°34' W 073°31'0 0.0
2016-Jul-21 19:25N 45°34' W 073°31'0 0.0
2016-Jul-21 18:31N 45°34' W 073°31'0 0.0
2016-Jul-21 17:31N 45°34' W 073°31'0 0.0
2016-Jul-21 16:31N 45°34' W 073°31'0 0.0
2016-Jul-21 15:31N 45°34' W 073°31'0 0.0
2016-Jul-21 14:25N 45°34' W 073°31'0 0.0
2016-Jul-21 13:33N 45°34' W 073°31'7 2.9
2016-Jul-21 11:19N 45°27' W 073°30'4 4.6
2016-Jul-21 10:31N 45°24' W 073°34'2 2.1
2016-Jul-21 09:24N 45°24' W 073°37'5 5.5
2016-Jul-21 08:33N 45°24' W 073°44'9 9.5
2016-Jul-21 07:33N 45°19' W 073°55'1 0.7
2016-Jul-21 06:33N 45°18' W 073°56'1 0.6
2016-Jul-21 05:34N 45°18' W 073°56'118 8.2
2016-Jul-20 15:05N 44°12' W 076°15'510.4
2016-Jul-20 14:34N 44°08' W 076°20'13512.9
2016-Jul-20 04:07N 43°16' W 079°12'3 4.5
2016-Jul-20 03:31N 43°13' W 079°13'  
2016-Jul-14 10:33N 43°13' W 079°13'1 1.1
2016-Jul-14 09:34N 43°14' W 079°13'8 8.0
2016-Jul-14 08:30N 43°21' W 079°06'12512.5
2016-Jul-13 22:34N 44°05' W 076°25'126 7.4
2016-Jul-13 05:33N 45°15' W 073°58'4 3.7
2016-Jul-13 04:33N 45°18' W 073°56'1 0.8
2016-Jul-13 03:33N 45°19' W 073°55'6 5.5
2016-Jul-13 02:33N 45°23' W 073°49'8 7.5
2016-Jul-13 01:33N 45°24' W 073°38'10 2.5
2016-Jul-12 21:29N 45°33' W 073°31'1 0.7
2016-Jul-12 20:31N 45°34' W 073°31'0 0.0
2016-Jul-12 19:31N 45°34' W 073°31'0 0.0
2016-Jul-12 18:31N 45°34' W 073°31'0 0.0
2016-Jul-12 17:31N 45°34' W 073°31'0 0.0
2016-Jul-12 16:31N 45°34' W 073°31'2 2.3
2016-Jul-12 15:28N 45°36' W 073°30'8 8.4
2016-Jul-12 14:33N 45°43' W 073°26'10 9.6
2016-Jul-12 13:33N 45°50' W 073°17'9 9.1
2016-Jul-12 12:33N 45°59' W 073°11'9 9.4
2016-Jul-12 11:33N 46°05' W 073°01'1010.1
2016-Jul-12 10:32N 46°12' W 072°51'  

Dump ship's entire track history